Time;durP1;ratioP1;P1;durP2;ratioP2;P2;SDS_P1;SDS_P2;PMS_P1;PMS_P2;Temp;Humidity;BMP_temperature;BMP_pressure;BME280_temperature;BME280_humidity;BME280_pressure;Samples;Min_cycle;Max_cycle;Signal;HPM_P1;HPM_P2
2022/01/02 00:01:42;;;;;;;6.20;3.43;;;4.30;99.90;3.30;100700;;;;577294;247;24069;-81
2022/01/02 00:04:10;;;;;;;10.10;4.13;;;4.10;99.90;3.20;100691;;;;576328;249;24060;-81
2022/01/02 00:06:38;;;;;;;5.63;3.07;;;4.10;99.90;3.10;100679;;;;576318;245;24102;-81
2022/01/02 00:09:09;;;;;;;8.60;3.80;;;4.10;99.90;3.10;100673;;;;576115;249;24071;-81
2022/01/02 00:11:38;;;;;;;11.30;3.63;;;4.00;99.90;3.10;100673;;;;576139;249;24055;-82
2022/01/02 00:14:05;;;;;;;9.33;3.20;;;4.00;99.90;3.00;100673;;;;576297;248;24044;-82
2022/01/02 00:16:31;;;;;;;7.37;4.03;;;4.00;99.90;3.00;100673;;;;576145;248;24069;-81
2022/01/02 00:19:08;;;;;;;6.17;2.93;;;4.00;99.90;3.00;100655;;;;576133;249;24057;-82
2022/01/02 00:21:33;;;;;;;4.60;3.30;;;4.00;99.90;3.00;100646;;;;575791;249;24054;-82
2022/01/02 00:24:06;;;;;;;4.60;3.27;;;4.00;99.90;3.00;100645;;;;576034;249;24046;-81
2022/01/02 00:26:43;;;;;;;14.87;2.23;;;4.00;99.90;3.00;100642;;;;575882;249;24082;-81
2022/01/02 00:29:10;;;;;;;7.23;3.27;;;4.00;99.90;3.00;100641;;;;575824;249;24070;-82
2022/01/02 00:31:35;;;;;;;3.87;2.73;;;3.90;99.90;3.00;100635;;;;576075;248;24056;-80
2022/01/02 00:34:03;;;;;;;4.40;2.57;;;3.90;99.90;3.00;100644;;;;575963;249;24051;-80
2022/01/02 00:36:31;;;;;;;4.17;2.50;;;3.90;99.90;3.00;100649;;;;575842;249;24051;-81
2022/01/02 00:38:58;;;;;;;4.27;2.57;;;4.00;99.90;3.00;100645;;;;575767;249;24087;-80
2022/01/02 00:41:26;;;;;;;8.53;3.33;;;4.00;99.90;3.00;100638;;;;575534;249;24060;-81
2022/01/02 00:44:24;;;;;;;4.97;3.07;;;4.00;99.90;3.00;100634;;;;559789;249;24110;-81
2022/01/02 00:47:29;;;;;;;7.53;2.67;;;4.00;99.90;3.00;100639;;;;575743;249;24126;-81
2022/01/02 00:50:03;;;;;;;2.73;2.43;;;3.90;99.90;3.00;100621;;;;575612;249;24070;-79
2022/01/02 00:52:31;;;;;;;3.33;2.10;;;3.90;99.90;3.00;100607;;;;566894;249;24103;-80
2022/01/02 00:55:02;;;;;;;7.60;2.47;;;3.90;99.90;3.00;100601;;;;575286;249;24087;-81
2022/01/02 00:57:31;;;;;;;4.60;2.50;;;4.00;99.90;3.00;100605;;;;575032;249;24056;-80
2022/01/02 01:00:08;;;;;;;5.67;2.13;;;4.00;99.90;3.00;100589;;;;575321;249;24088;-81
2022/01/02 01:02:53;;;;;;;5.60;2.63;;;4.00;99.90;3.00;100576;;;;566393;249;24063;-81
2022/01/02 01:05:20;;;;;;;3.73;2.53;;;4.00;99.90;3.00;100577;;;;574025;249;24070;-81
2022/01/02 01:07:54;;;;;;;2.97;2.40;;;4.00;99.90;3.00;100569;;;;566333;249;24088;-80
2022/01/02 01:10:22;;;;;;;5.80;2.93;;;4.00;99.90;3.00;100568;;;;575716;249;25075;-80
2022/01/02 01:12:50;;;;;;;4.37;2.13;;;4.00;99.90;3.10;100555;;;;565372;249;24051;-80
2022/01/02 01:15:17;;;;;;;9.73;3.27;;;4.00;99.90;3.10;100558;;;;576853;249;24045;-80
2022/01/02 01:17:48;;;;;;;3.63;2.50;;;4.00;99.90;3.10;100546;;;;576394;249;24100;-80
2022/01/02 01:20:16;;;;;;;6.60;3.03;;;4.10;99.90;3.10;100537;;;;569118;246;24040;-80
2022/01/02 01:22:45;;;;;;;4.33;2.80;;;4.10;99.90;3.10;100535;;;;575981;246;24087;-80
2022/01/02 01:25:16;;;;;;;6.80;2.77;;;4.10;99.90;3.10;100552;;;;575351;246;24058;-81
2022/01/02 01:27:40;;;;;;;5.93;3.27;;;4.10;99.90;3.10;100525;;;;575513;246;24124;-80
2022/01/02 01:30:08;;;;;;;9.53;3.33;;;4.10;99.90;3.10;100534;;;;584469;246;24115;-81
2022/01/02 01:32:40;;;;;;;5.30;2.90;;;4.10;99.90;3.20;100528;;;;574751;246;24084;-80
2022/01/02 01:35:04;;;;;;;7.00;2.97;;;4.20;99.90;3.20;100536;;;;574851;246;24066;-80
2022/01/02 01:37:32;;;;;;;9.03;3.83;;;4.20;99.90;3.20;100521;;;;574772;246;24159;-80
2022/01/02 01:40:03;;;;;;;5.27;3.77;;;4.20;99.90;3.20;100513;;;;575144;246;24080;-80
2022/01/02 01:42:44;;;;;;;6.33;3.13;;;4.20;99.90;3.20;100514;;;;579347;246;24068;-80
2022/01/02 01:47:55;;;;;;;5.93;4.43;;;4.20;99.90;3.30;100497;;;;584180;246;24075;-81
2022/01/02 01:50:23;;;;;;;12.00;4.60;;;4.30;99.90;3.30;100495;;;;575379;246;24088;-80
2022/01/02 01:52:51;;;;;;;14.30;4.70;;;4.30;99.90;3.30;100497;;;;574760;246;24132;-81
2022/01/02 01:55:22;;;;;;;8.50;4.73;;;4.30;99.90;3.30;100503;;;;584080;246;24080;-81
2022/01/02 01:57:51;;;;;;;10.17;5.20;;;4.30;99.90;3.30;100510;;;;583787;246;24061;-81
2022/01/02 02:00:16;;;;;;;12.07;5.87;;;4.30;99.90;3.30;100492;;;;577641;246;24084;-80
2022/01/02 02:02:47;;;;;;;14.97;7.27;;;4.30;99.90;3.30;100493;;;;574670;246;24087;-79
2022/01/02 02:05:12;;;;;;;10.57;6.43;;;4.30;99.90;3.40;100492;;;;583945;246;24072;-80
2022/01/02 02:07:43;;;;;;;10.43;6.00;;;4.30;99.90;3.40;100474;;;;583814;245;24131;-79
2022/01/02 02:10:23;;;;;;;14.97;5.93;;;4.40;99.90;3.40;100472;;;;574801;246;24070;-81
2022/01/02 02:12:45;;;;;;;17.57;7.53;;;4.30;99.90;3.40;100461;;;;574549;246;24069;-81
2022/01/02 02:15:13;;;;;;;14.10;7.07;;;4.30;99.90;3.40;100446;;;;583583;246;24116;-80
2022/01/02 02:17:44;;;;;;;9.63;5.80;;;4.30;99.90;3.40;100450;;;;583715;246;24080;-81
2022/01/02 02:20:15;;;;;;;13.33;7.37;;;4.40;99.90;3.40;100451;;;;574145;246;24104;-80
2022/01/02 02:22:46;;;;;;;6.97;5.60;;;4.40;99.90;3.40;100447;;;;584111;244;24100;-80
2022/01/02 02:25:11;;;;;;;11.77;5.40;;;4.40;99.90;3.40;100443;;;;576364;246;24144;-80
2022/01/02 02:27:39;;;;;;;13.07;6.23;;;4.40;99.90;3.40;100435;;;;576022;246;24067;-80
2022/01/02 02:30:07;;;;;;;10.87;5.90;;;4.30;99.90;3.40;100415;;;;575995;246;24046;-80
2022/01/02 02:32:34;;;;;;;12.43;5.80;;;4.40;99.90;3.40;100404;;;;574995;246;24076;-80
2022/01/02 02:35:05;;;;;;;9.73;6.03;;;4.30;99.90;3.40;100391;;;;570978;244;24124;-79
2022/01/02 02:37:30;;;;;;;9.43;5.30;;;4.40;99.90;3.40;100390;;;;584576;246;24114;-79
2022/01/02 02:39:58;;;;;;;9.40;5.40;;;4.40;99.90;3.40;100381;;;;575709;246;24066;-79
2022/01/02 02:42:35;;;;;;;11.70;6.03;;;4.40;99.90;3.50;100374;;;;575492;246;24045;-79
2022/01/02 02:48:56;;;;;;;9.37;4.87;;;4.40;99.90;3.50;100366;;;;575106;246;24097;-79
2022/01/02 02:50:13;;;;;;;7.33;5.23;;;4.40;99.90;3.50;100332;;;;584351;245;24053;-78
2022/01/02 02:52:46;;;;;;;9.67;5.27;;;4.50;99.90;3.50;100335;;;;575072;246;24096;-78
2022/01/02 02:55:14;;;;;;;7.97;4.50;;;4.50;99.90;3.60;100336;;;;575048;246;24057;-78
2022/01/02 02:57:39;;;;;;;7.43;5.10;;;4.50;99.90;3.60;100316;;;;570069;246;24089;-79
2022/01/02 03:00:07;;;;;;;8.50;5.80;;;4.50;99.90;3.60;100318;;;;574785;246;24111;-79
2022/01/02 03:02:35;;;;;;;9.23;5.70;;;4.50;99.90;3.60;100324;;;;574912;246;24064;-78
2022/01/02 03:05:03;;;;;;;13.47;6.40;;;4.50;99.90;3.60;100324;;;;574794;246;24130;-79
2022/01/02 03:07:31;;;;;;;10.97;5.90;;;4.50;99.90;3.60;100319;;;;583772;246;24109;-79
2022/01/02 03:10:02;;;;;;;12.00;6.17;;;4.50;99.90;3.60;100311;;;;574942;246;24139;-80
2022/01/02 03:12:27;;;;;;;8.43;5.53;;;4.60;99.90;3.70;100297;;;;576983;246;24098;-79
2022/01/02 03:14:55;;;;;;;9.13;5.70;;;4.60;99.90;3.70;100290;;;;564804;251;24088;-79
2022/01/02 03:17:23;;;;;;;18.70;11.10;;;4.60;99.90;3.70;100280;;;;568108;250;35330;-79
2022/01/02 03:19:51;;;;;;;12.43;7.20;;;4.60;99.90;3.80;100264;;;;564748;251;24144;-79
2022/01/02 03:22:19;;;;;;;15.73;7.50;;;4.70;99.90;3.80;100264;;;;566879;249;24085;-80
2022/01/02 03:24:49;;;;;;;11.50;7.83;;;4.70;99.90;3.80;100252;;;;563883;249;24109;-80
2022/01/02 03:27:15;;;;;;;14.47;7.27;;;4.70;99.90;3.80;100250;;;;566691;249;24136;-79
2022/01/02 03:29:43;;;;;;;12.07;6.87;;;4.80;99.90;3.90;100261;;;;566748;249;24129;-79
2022/01/02 03:32:12;;;;;;;13.57;6.17;;;4.80;99.90;3.90;100247;;;;566845;249;24073;-79
2022/01/02 03:34:39;;;;;;;11.07;6.10;;;4.90;99.90;3.90;100239;;;;576197;247;24099;-79
2022/01/02 03:37:06;;;;;;;7.77;4.90;;;4.90;99.90;4.00;100221;;;;568358;249;24079;-79
2022/01/02 03:39:36;;;;;;;8.60;6.00;;;4.90;99.90;4.00;100226;;;;568132;249;24083;-79
2022/01/02 03:42:02;;;;;;;13.37;8.43;;;4.90;99.90;4.10;100229;;;;576512;249;24100;-79
2022/01/02 03:44:30;;;;;;;14.13;7.60;;;5.00;99.90;4.10;100210;;;;567510;249;24114;-79
2022/01/02 03:46:58;;;;;;;10.37;6.60;;;5.00;99.90;4.10;100212;;;;567220;249;24125;-79
2022/01/02 03:49:27;;;;;;;10.97;6.97;;;5.10;99.90;4.20;100211;;;;567443;249;24165;-79
2022/01/02 03:51:56;;;;;;;8.73;6.27;;;5.10;99.90;4.20;100199;;;;567306;249;24106;-79
2022/01/02 03:54:26;;;;;;;8.00;6.40;;;5.10;99.90;4.20;100188;;;;566992;249;24101;-79
2022/01/02 03:56:53;;;;;;;10.67;7.03;;;5.20;99.90;4.30;100195;;;;566848;249;24125;-79
2022/01/02 03:59:19;;;;;;;15.67;7.93;;;5.20;99.90;4.30;100170;;;;566858;249;25176;-80
2022/01/02 04:01:47;;;;;;;11.73;5.40;;;5.20;99.90;4.40;100171;;;;567078;249;24096;-80
2022/01/02 04:04:16;;;;;;;11.83;5.70;;;5.30;99.90;4.40;100154;;;;575642;249;24098;-78
2022/01/02 04:06:46;;;;;;;12.43;5.53;;;5.30;99.90;4.40;100141;;;;567089;249;24092;-78
2022/01/02 04:09:11;;;;;;;12.03;6.17;;;5.30;99.90;4.50;100137;;;;567322;249;24101;-79
2022/01/02 04:11:39;;;;;;;12.70;6.23;;;5.40;99.90;4.50;100140;;;;567260;249;24150;-79
2022/01/02 04:14:07;;;;;;;11.80;8.20;;;5.50;99.90;4.60;100138;;;;567156;249;24132;-79
2022/01/02 04:16:35;;;;;;;11.13;6.30;;;5.50;99.90;4.60;100141;;;;567181;249;24140;-80
2022/01/02 04:19:06;;;;;;;10.87;6.83;;;5.60;99.90;4.60;100141;;;;567185;249;24163;-80
2022/01/02 04:21:31;;;;;;;8.80;6.70;;;5.60;99.90;4.70;100143;;;;566708;249;24165;-79
2022/01/02 04:24:02;;;;;;;10.77;6.57;;;5.60;99.90;4.70;100126;;;;567140;249;24106;-79
2022/01/02 04:26:27;;;;;;;10.17;6.27;;;5.70;99.90;4.80;100121;;;;563795;249;24088;-80
2022/01/02 04:28:55;;;;;;;13.10;7.67;;;5.70;99.90;4.80;100114;;;;575767;249;24172;-80
2022/01/02 04:31:23;;;;;;;11.40;6.63;;;5.80;99.90;4.90;100115;;;;567203;249;24159;-80
2022/01/02 04:33:51;;;;;;;10.37;7.07;;;5.70;99.90;4.90;100102;;;;575667;249;25115;-79
2022/01/02 04:36:19;;;;;;;9.90;6.47;;;5.80;99.90;4.90;100084;;;;575462;248;24099;-81
2022/01/02 04:38:48;;;;;;;8.67;5.80;;;5.90;99.90;5.00;100079;;;;566824;249;24094;-79
2022/01/02 04:41:20;;;;;;;11.20;6.33;;;5.90;99.90;5.00;100080;;;;566941;249;24091;-80
2022/01/02 04:43:44;;;;;;;11.13;7.27;;;5.90;99.90;5.10;100077;;;;561103;249;24099;-79
2022/01/02 04:46:12;;;;;;;11.67;7.23;;;6.00;99.90;5.10;100064;;;;567657;249;24104;-80
2022/01/02 04:48:40;;;;;;;9.97;6.83;;;6.00;99.90;5.20;100075;;;;577146;249;24126;-80
2022/01/02 04:51:07;;;;;;;11.30;6.43;;;6.10;99.90;5.30;100047;;;;576802;249;24107;-79
2022/01/02 04:53:37;;;;;;;9.50;6.67;;;6.10;99.90;5.30;100064;;;;576668;249;24080;-80
2022/01/02 04:56:07;;;;;;;8.27;6.10;;;6.20;99.90;5.30;100061;;;;576437;249;24138;-80
2022/01/02 04:58:31;;;;;;;10.57;6.67;;;6.20;99.90;5.30;100054;;;;576329;249;24131;-79
2022/01/02 05:00:59;;;;;;;8.03;5.73;;;6.20;99.90;5.30;100048;;;;576792;249;24139;-79
2022/01/02 05:03:28;;;;;;;8.20;6.17;;;6.30;99.90;5.40;100048;;;;576754;249;24096;-79
2022/01/02 05:05:55;;;;;;;10.87;6.70;;;6.30;99.90;5.50;100043;;;;576404;249;24115;-80
2022/01/02 05:08:23;;;;;;;8.97;6.33;;;6.30;99.90;5.50;100042;;;;575846;249;24112;-80
2022/01/02 05:10:51;;;;;;;10.17;6.87;;;6.40;99.90;5.50;100040;;;;576143;249;24106;-79
2022/01/02 05:13:19;;;;;;;10.00;6.10;;;6.40;99.90;5.60;100027;;;;575765;249;24115;-79
2022/01/02 05:15:47;;;;;;;11.03;6.17;;;6.50;99.90;5.60;100012;;;;569511;249;24094;-79
2022/01/02 05:18:15;;;;;;;7.43;5.07;;;6.50;99.90;5.70;100017;;;;569526;252;24143;-79
2022/01/02 05:20:46;;;;;;;9.27;6.17;;;6.60;99.90;5.70;100001;;;;572870;250;24144;-79
2022/01/02 05:23:11;;;;;;;10.17;6.13;;;6.60;99.90;5.80;100001;;;;558745;252;24160;-79
2022/01/02 05:25:39;;;;;;;10.67;6.50;;;6.70;99.90;5.80;100004;;;;573872;246;24027;-79
2022/01/02 05:28:07;;;;;;;8.50;5.90;;;6.70;99.90;5.80;100000;;;;583232;246;24091;-80
2022/01/02 05:30:35;;;;;;;10.67;6.03;;;6.70;99.90;5.90;100003;;;;583411;246;24083;-79
2022/01/02 05:33:03;;;;;;;11.13;7.10;;;6.80;99.90;5.90;100011;;;;583265;246;24112;-80
2022/01/02 05:35:31;;;;;;;11.90;6.77;;;6.80;99.90;6.00;100007;;;;583477;246;24075;-79
2022/01/02 05:37:59;;;;;;;10.23;6.80;;;6.90;99.90;6.00;100027;;;;583699;246;24073;-79
2022/01/02 05:40:34;;;;;;;9.03;6.47;;;6.90;99.90;6.00;100016;;;;583696;246;24104;-79
2022/01/02 05:43:04;;;;;;;10.60;7.00;;;6.90;99.90;6.10;100014;;;;583479;246;24122;-79
2022/01/02 05:45:32;;;;;;;11.07;7.10;;;6.90;99.90;6.10;100005;;;;583248;246;24074;-80
2022/01/02 05:47:56;;;;;;;10.77;6.50;;;7.00;99.90;6.10;99994;;;;582957;246;24079;-78
2022/01/02 05:50:24;;;;;;;8.70;6.73;;;7.00;99.90;6.10;99997;;;;583227;246;24118;-78
2022/01/02 05:52:52;;;;;;;12.97;7.10;;;7.00;99.90;6.10;99994;;;;583365;246;24085;-79
2022/01/02 05:55:20;;;;;;;11.00;6.67;;;7.00;99.90;6.10;99977;;;;583308;246;24077;-79
2022/01/02 05:57:48;;;;;;;10.70;7.23;;;7.00;99.90;6.20;99975;;;;584365;244;24080;-79
2022/01/02 06:00:15;;;;;;;10.17;8.00;;;7.10;99.90;6.20;99978;;;;584685;245;24076;-79
2022/01/02 06:02:43;;;;;;;12.07;8.13;;;7.10;99.90;6.20;99967;;;;584215;245;24096;-79
2022/01/02 06:05:11;;;;;;;12.13;7.23;;;7.20;99.90;6.30;99965;;;;584171;246;24095;-78
2022/01/02 06:07:39;;;;;;;15.40;8.33;;;7.20;99.90;6.40;99967;;;;583909;242;24066;-78
2022/01/02 06:10:07;;;;;;;11.67;7.07;;;7.20;99.90;6.40;99959;;;;583900;246;24088;-79
2022/01/02 06:12:35;;;;;;;10.37;7.30;;;7.30;99.90;6.40;99944;;;;583787;246;24114;-79
2022/01/02 06:15:06;;;;;;;11.60;7.97;;;7.30;99.90;6.50;99938;;;;583742;246;24102;-79
2022/01/02 06:17:31;;;;;;;12.10;8.77;;;7.40;99.90;6.50;99922;;;;583389;246;24101;-78
2022/01/02 06:19:58;;;;;;;15.33;8.73;;;7.40;99.90;6.60;99930;;;;583532;246;24099;-79
2022/01/02 06:22:26;;;;;;;14.33;8.73;;;7.50;99.90;6.60;99913;;;;583961;246;24081;-78
2022/01/02 06:24:54;;;;;;;12.93;7.83;;;7.50;99.90;6.60;99902;;;;584025;246;24121;-79
2022/01/02 06:27:22;;;;;;;15.33;8.43;;;7.60;99.90;6.70;99897;;;;583975;246;24063;-79
2022/01/02 06:29:50;;;;;;;16.30;8.83;;;7.60;99.90;6.70;99899;;;;583931;246;24069;-79
2022/01/02 06:32:18;;;;;;;13.00;8.40;;;7.60;99.90;6.70;99898;;;;583920;246;24122;-79
2022/01/02 06:34:46;;;;;;;16.80;9.27;;;7.60;99.90;6.80;99883;;;;583756;246;24109;-79
2022/01/02 06:37:17;;;;;;;14.17;9.17;;;7.70;99.90;6.80;99877;;;;583684;246;24082;-80
2022/01/02 06:39:41;;;;;;;12.73;9.40;;;7.70;99.90;6.80;99859;;;;583303;246;25107;-76
2022/01/02 06:42:09;;;;;;;15.60;10.53;;;7.70;99.90;6.80;99852;;;;583646;246;24106;-78
2022/01/02 06:44:37;;;;;;;17.00;10.03;;;7.70;99.90;6.90;99855;;;;583684;246;24075;-79
2022/01/02 06:47:05;;;;;;;16.80;10.57;;;7.80;99.90;6.90;99845;;;;583681;246;24116;-80
2022/01/02 06:49:33;;;;;;;16.23;10.17;;;7.80;99.90;6.90;99833;;;;583242;246;24077;-79
2022/01/02 06:52:01;;;;;;;13.90;9.53;;;7.80;99.90;6.90;99851;;;;583378;246;24119;-79
2022/01/02 06:54:29;;;;;;;16.17;10.23;;;7.80;99.90;7.00;99845;;;;583300;246;24074;-79
2022/01/02 06:56:56;;;;;;;15.80;10.57;;;7.80;99.90;7.00;99852;;;;583216;246;24101;-79
2022/01/02 06:59:24;;;;;;;16.20;10.70;;;7.90;99.90;7.00;99845;;;;583687;246;24105;-78
2022/01/02 07:01:52;;;;;;;15.80;11.47;;;7.90;99.90;7.10;99852;;;;583650;246;24072;-79
2022/01/02 07:04:20;;;;;;;17.33;11.23;;;8.00;99.90;7.10;99847;;;;583643;246;24073;-79
2022/01/02 07:06:48;;;;;;;17.70;10.87;;;8.00;99.90;7.20;99842;;;;579922;246;24118;-80
2022/01/02 07:09:16;;;;;;;13.97;9.80;;;8.00;99.90;7.20;99833;;;;576108;248;24129;-80
2022/01/02 07:11:44;;;;;;;17.30;10.90;;;8.10;99.90;7.20;99826;;;;576385;249;24114;-80
2022/01/02 07:14:12;;;;;;;15.73;10.40;;;8.10;99.90;7.30;99824;;;;576504;249;24105;-79
2022/01/02 07:16:39;;;;;;;15.00;10.70;;;8.10;99.90;7.30;99817;;;;565456;251;24148;-79
2022/01/02 07:19:07;;;;;;;18.93;11.30;;;8.20;99.90;7.30;99819;;;;562807;255;24166;-79
2022/01/02 07:21:36;;;;;;;18.33;10.97;;;8.20;99.90;7.40;99812;;;;568122;253;24137;-79
2022/01/02 07:24:04;;;;;;;17.90;11.23;;;8.20;99.90;7.40;99810;;;;562209;254;24164;-79
2022/01/02 07:26:32;;;;;;;14.77;10.40;;;8.30;99.90;7.40;99801;;;;571696;251;24171;-78
2022/01/02 07:29:02;;;;;;;18.13;10.13;;;8.30;99.90;7.50;99808;;;;570118;252;24112;-78
2022/01/02 07:31:27;;;;;;;19.33;10.23;;;8.30;99.90;7.50;99805;;;;564085;254;24102;-77
2022/01/02 07:33:55;;;;;;;15.53;9.37;;;8.40;99.90;7.50;99798;;;;584014;246;24069;-78
2022/01/02 07:36:23;;;;;;;19.20;10.20;;;8.40;99.90;7.60;99803;;;;583679;246;24090;-78
2022/01/02 07:38:51;;;;;;;15.77;11.10;;;8.40;99.90;7.60;99794;;;;584122;246;24053;-78
2022/01/02 07:41:19;;;;;;;17.83;9.93;;;8.50;99.90;7.70;99791;;;;583697;246;24080;-80
2022/01/02 07:43:47;;;;;;;15.97;10.30;;;8.50;99.90;7.70;99788;;;;583967;246;24104;-79
2022/01/02 07:46:15;;;;;;;11.27;8.90;;;8.60;99.90;7.80;99783;;;;583793;246;24139;-78
2022/01/02 07:48:43;;;;;;;18.33;10.43;;;8.60;99.90;7.80;99801;;;;583291;246;24088;-79
2022/01/02 07:51:11;;;;;;;13.63;9.97;;;8.70;99.90;7.90;99783;;;;583679;246;24118;-79
2022/01/02 07:53:39;;;;;;;15.23;11.37;;;8.70;99.90;7.90;99777;;;;583314;246;24077;-79
2022/01/02 07:56:07;;;;;;;15.50;9.77;;;8.80;99.90;7.90;99769;;;;583233;246;24096;-79
2022/01/02 07:58:35;;;;;;;13.90;10.17;;;8.80;99.90;7.90;99755;;;;583699;246;24099;-79
2022/01/02 08:01:03;;;;;;;15.23;9.57;;;8.80;99.90;7.90;99747;;;;583692;246;24089;-79
2022/01/02 08:03:31;;;;;;;16.97;10.37;;;8.80;99.90;8.00;99746;;;;583421;246;24084;-78
2022/01/02 08:05:58;;;;;;;16.73;9.90;;;8.80;99.90;8.00;99747;;;;583659;246;24093;-79
2022/01/02 08:08:26;;;;;;;14.33;10.27;;;8.90;99.90;8.00;99750;;;;583479;242;24130;-79
2022/01/02 08:10:54;;;;;;;16.23;10.20;;;8.90;99.90;8.00;99743;;;;583676;246;24498;-80
2022/01/02 08:13:22;;;;;;;14.70;10.37;;;8.90;99.90;8.10;99736;;;;583248;246;24096;-80
2022/01/02 08:15:50;;;;;;;16.30;9.90;;;8.90;99.90;8.10;99736;;;;583700;246;24153;-79
2022/01/02 08:18:18;;;;;;;13.67;8.67;;;9.00;99.90;8.20;99726;;;;583217;246;24069;-80
2022/01/02 08:20:48;;;;;;;15.23;9.33;;;9.00;99.90;8.20;99724;;;;583881;244;24119;-79
2022/01/02 08:23:16;;;;;;;14.20;10.17;;;9.00;99.90;8.30;99719;;;;584661;245;24088;-78
2022/01/02 08:25:45;;;;;;;14.60;9.60;;;9.10;99.90;8.30;99718;;;;584700;246;24122;-79
2022/01/02 08:28:13;;;;;;;14.60;9.83;;;9.10;99.90;8.30;99721;;;;584187;246;24073;-80
2022/01/02 08:30:43;;;;;;;12.40;9.37;;;9.10;99.90;8.40;99718;;;;584357;246;24099;-79
2022/01/02 08:33:09;;;;;;;14.07;8.97;;;9.20;99.90;8.40;99725;;;;583814;246;24112;-79
2022/01/02 08:35:36;;;;;;;10.57;9.00;;;9.20;99.90;8.40;99705;;;;584258;246;24069;-79
2022/01/02 08:38:04;;;;;;;14.30;9.63;;;9.30;99.90;8.40;99710;;;;583941;246;24207;-79
2022/01/02 08:40:32;;;;;;;16.17;10.00;;;9.20;99.90;8.40;99698;;;;584043;246;24080;-79
2022/01/02 08:43:00;;;;;;;14.57;8.57;;;9.20;99.90;8.40;99691;;;;583527;246;24080;-80
2022/01/02 08:45:28;;;;;;;14.33;9.77;;;9.20;99.90;8.40;99685;;;;583978;246;24125;-80
2022/01/02 08:47:56;;;;;;;15.13;9.37;;;9.20;99.90;8.40;99674;;;;583558;246;24096;-80
2022/01/02 08:50:24;;;;;;;12.53;9.43;;;9.20;99.90;8.40;99671;;;;583967;246;24081;-79
2022/01/02 08:52:52;;;;;;;13.57;9.00;;;9.20;99.90;8.40;99673;;;;583593;246;25125;-79
2022/01/02 08:55:24;;;;;;;16.93;9.53;;;9.20;99.90;8.40;99676;;;;583980;246;24103;-80
2022/01/02 08:57:48;;;;;;;11.33;7.90;;;9.20;99.90;8.40;99675;;;;583201;246;24111;-81
2022/01/02 09:00:19;;;;;;;14.83;8.97;;;9.20;99.90;8.40;99668;;;;583653;246;24113;-80
2022/01/02 09:02:44;;;;;;;19.77;9.37;;;9.20;99.90;8.40;99674;;;;583208;246;24117;-79
2022/01/02 09:05:12;;;;;;;16.87;8.90;;;9.20;99.90;8.40;99663;;;;583634;246;24114;-80
2022/01/02 09:07:40;;;;;;;15.87;9.37;;;9.20;99.90;8.40;99653;;;;583439;242;24081;-79
2022/01/02 09:10:07;;;;;;;15.10;9.00;;;9.20;99.90;8.50;99646;;;;583693;246;24122;-79
2022/01/02 09:12:35;;;;;;;15.40;8.97;;;9.30;99.90;8.40;99647;;;;583201;246;24131;-79
2022/01/02 09:15:03;;;;;;;13.10;9.17;;;9.30;99.90;8.50;99652;;;;583683;246;24137;-79
2022/01/02 09:17:31;;;;;;;10.73;8.33;;;9.30;99.90;8.50;99647;;;;583250;246;24099;-79
2022/01/02 09:19:59;;;;;;;15.10;9.17;;;9.30;99.90;8.50;99636;;;;583704;246;24105;-80
2022/01/02 09:22:27;;;;;;;15.00;9.33;;;9.30;99.90;8.50;99625;;;;578207;246;24104;-80
2022/01/02 09:24:55;;;;;;;10.27;7.97;;;9.30;99.90;8.50;99617;;;;575857;249;24138;-80
2022/01/02 09:27:23;;;;;;;11.33;8.97;;;9.40;99.90;8.50;99609;;;;575549;249;24107;-80
2022/01/02 09:29:50;;;;;;;16.73;9.13;;;9.40;99.90;8.50;99590;;;;575873;249;24114;-80
2022/01/02 09:32:18;;;;;;;14.90;8.77;;;9.40;99.90;8.60;99587;;;;575895;247;24236;-80
2022/01/02 09:34:46;;;;;;;12.63;8.13;;;9.40;99.90;8.60;99586;;;;577225;248;24114;-80
2022/01/02 09:37:14;;;;;;;14.83;8.40;;;9.40;99.90;8.60;99582;;;;576838;249;25149;-79
2022/01/02 09:39:42;;;;;;;13.43;8.47;;;9.40;99.90;8.60;99580;;;;576688;249;24115;-79
2022/01/02 09:42:11;;;;;;;12.40;8.53;;;9.50;99.90;8.70;99567;;;;576078;249;24108;-79
2022/01/02 09:44:38;;;;;;;13.83;8.70;;;9.50;99.90;8.70;99550;;;;576269;249;24146;-80
2022/01/02 09:47:06;;;;;;;10.07;7.90;;;9.50;99.90;8.70;99554;;;;576024;249;24119;-80
2022/01/02 09:49:34;;;;;;;8.73;7.83;;;9.60;99.90;8.70;99547;;;;576370;249;24153;-79
2022/01/02 09:52:02;;;;;;;12.37;8.63;;;9.60;99.90;8.70;99546;;;;575749;249;24123;-80
2022/01/02 09:54:30;;;;;;;10.40;8.00;;;9.60;99.90;8.70;99538;;;;576131;249;24116;-80
2022/01/02 09:56:58;;;;;;;12.73;8.00;;;9.60;99.90;8.70;99548;;;;575748;249;24156;-79
2022/01/02 09:59:26;;;;;;;12.03;8.03;;;9.60;99.90;8.80;99535;;;;576126;249;24123;-79
2022/01/02 10:01:53;;;;;;;11.67;7.33;;;9.60;99.90;8.80;99537;;;;575840;249;24121;-78
2022/01/02 10:04:42;;;;;;;9.87;8.00;;;9.70;99.90;8.80;99534;;;;576149;249;24147;-78
2022/01/02 10:07:31;;;;;;;14.37;8.10;;;9.70;99.90;8.80;99517;;;;575539;249;24119;-81
2022/01/02 10:09:58;;;;;;;12.67;8.70;;;9.70;99.90;8.80;99515;;;;575519;249;24150;-77
2022/01/02 10:12:29;;;;;;;10.17;7.40;;;9.70;99.90;8.80;99503;;;;575331;249;24087;-81
2022/01/02 10:15:07;;;;;;;10.80;7.73;;;9.70;99.90;8.80;99499;;;;575445;249;24162;-78
2022/01/02 10:17:53;;;;;;;11.30;8.57;;;9.70;99.90;8.80;99486;;;;575847;249;24111;-77
2022/01/02 10:20:24;;;;;;;13.30;8.33;;;9.70;99.90;8.90;99492;;;;575656;249;24127;-80
2022/01/02 10:23:10;;;;;;;12.37;8.27;;;9.80;99.90;8.90;99484;;;;575128;246;24113;-81
2022/01/02 10:25:56;;;;;;;11.10;7.57;;;9.80;99.90;8.90;99476;;;;575539;249;24134;-81
2022/01/02 10:28:38;;;;;;;10.73;8.50;;;9.80;99.90;8.90;99473;;;;575357;249;24152;-79
2022/01/02 10:31:09;;;;;;;12.00;7.73;;;9.80;99.90;9.00;99457;;;;575207;249;24125;-78
2022/01/02 10:33:49;;;;;;;10.07;7.50;;;9.80;99.90;9.00;99445;;;;575569;249;24102;-81
2022/01/02 10:36:35;;;;;;;9.63;7.00;;;9.90;99.90;9.10;99449;;;;574913;249;24213;-81
2022/01/02 10:39:12;;;;;;;10.93;7.20;;;10.00;99.90;9.10;99451;;;;575091;249;24137;-79
2022/01/02 10:41:45;;;;;;;9.03;7.07;;;9.90;99.90;9.20;99442;;;;575420;249;24160;-81
2022/01/02 10:44:43;;;;;;;11.13;7.20;;;10.00;99.90;9.10;99431;;;;575743;248;24126;-82
2022/01/02 10:47:16;;;;;;;9.77;7.10;;;10.00;99.90;9.20;99425;;;;574834;249;24095;-80
2022/01/02 10:49:58;;;;;;;7.73;6.70;;;10.00;99.90;9.20;99427;;;;576599;249;24156;-80
2022/01/02 10:52:35;;;;;;;9.70;7.13;;;10.00;99.90;9.20;99423;;;;576204;249;24161;-81
2022/01/02 10:55:21;;;;;;;12.00;7.73;;;10.00;99.90;9.20;99426;;;;576348;249;24110;-82
2022/01/02 10:57:52;;;;;;;9.10;6.87;;;10.00;99.90;9.20;99427;;;;575585;249;24112;-81
2022/01/02 11:00:16;;;;;;;9.17;7.07;;;10.00;99.90;9.10;99423;;;;575959;249;24176;-81
2022/01/02 11:02:44;;;;;;;9.30;7.23;;;10.00;99.90;9.10;99421;;;;567728;253;24153;-81
2022/01/02 11:05:15;;;;;;;9.43;6.90;;;10.00;99.90;9.10;99411;;;;575927;249;24117;-82
2022/01/02 11:07:43;;;;;;;9.93;7.50;;;9.90;99.90;9.10;99409;;;;575434;249;24149;-81
2022/01/02 11:10:11;;;;;;;11.50;7.40;;;9.90;99.90;9.00;99409;;;;557613;258;24169;-82
2022/01/02 11:12:39;;;;;;;8.87;6.60;;;9.90;99.90;9.00;99407;;;;575557;249;24103;-81
2022/01/02 11:15:06;;;;;;;11.33;7.13;;;9.90;99.90;9.00;99408;;;;568043;249;24126;-82
2022/01/02 11:17:35;;;;;;;8.73;6.93;;;9.80;99.90;9.00;99402;;;;567610;253;24089;-82
2022/01/02 11:20:08;;;;;;;10.20;7.43;;;9.80;99.90;9.00;99387;;;;567526;253;24116;-82
2022/01/02 11:23:00;;;;;;;9.97;7.20;;;9.80;99.90;9.00;99377;;;;567185;253;24090;-78
2022/01/02 11:25:46;;;;;;;7.80;6.27;;;9.80;99.90;9.00;99377;;;;567698;253;24105;-83
2022/01/02 11:28:26;;;;;;;9.63;6.97;;;9.80;99.90;9.00;99366;;;;567259;253;24136;-81
2022/01/02 11:30:54;;;;;;;7.30;6.60;;;9.80;99.90;8.90;99358;;;;567029;253;24152;-80
2022/01/02 11:33:39;;;;;;;10.80;6.83;;;9.70;99.90;8.90;99360;;;;567599;246;24105;-80
2022/01/02 11:36:28;;;;;;;7.67;6.47;;;9.70;99.90;8.90;99356;;;;567367;253;24133;-81
2022/01/02 11:39:07;;;;;;;6.43;5.80;;;9.70;99.90;8.90;99354;;;;567698;246;24156;-81